Time;durP1;ratioP1;P1;durP2;ratioP2;P2;SDS_P1;SDS_P2;PMS_P1;PMS_P2;Temp;Humidity;BMP_temperature;BMP_pressure;BME280_temperature;BME280_humidity;BME280_pressure;Samples;Min_cycle;Max_cycle;Signal;HPM_P1;HPM_P2
2022/05/09 00:02:13;;;;;;;8.07;2.08;;;;;;;;;;4942300;28;20047;-68
2022/05/09 00:04:42;;;;;;;13.25;2.72;;;;;;;;;;4927910;29;20055;-68
2022/05/09 00:07:09;;;;;;;8.93;2.53;;;;;;;;;;4942745;28;20103;-68
2022/05/09 00:09:37;;;;;;;11.68;2.40;;;;;;;;;;4946645;28;20046;-68
2022/05/09 00:12:04;;;;;;;11.05;2.50;;;;;;;;;;4926414;29;20075;-68
2022/05/09 00:14:31;;;;;;;16.30;3.05;;;;;;;;;;4944499;28;20123;-68
2022/05/09 00:16:59;;;;;;;8.65;2.72;;;;;;;;;;4929733;28;20565;-68
2022/05/09 00:19:26;;;;;;;9.40;2.70;;;;;;;;;;4945329;28;20450;-68
2022/05/09 00:21:55;;;;;;;11.55;2.60;;;;;;;;;;4943822;28;20103;-68
2022/05/09 00:24:22;;;;;;;11.52;3.15;;;;;;;;;;4943396;28;20415;-68
2022/05/09 00:26:50;;;;;;;10.57;2.50;;;;;;;;;;4923905;29;20083;-68
2022/05/09 00:29:18;;;;;;;7.53;2.78;;;;;;;;;;4923882;29;20498;-68
2022/05/09 00:31:47;;;;;;;18.52;2.85;;;;;;;;;;4943258;28;20121;-68
2022/05/09 00:34:17;;;;;;;10.05;2.90;;;;;;;;;;4944962;29;20126;-68
2022/05/09 00:36:44;;;;;;;10.55;2.88;;;;;;;;;;4927800;29;20070;-68
2022/05/09 00:39:13;;;;;;;15.20;2.92;;;;;;;;;;4944647;28;20051;-68
2022/05/09 00:41:42;;;;;;;13.13;3.05;;;;;;;;;;4944584;28;20059;-68
2022/05/09 00:44:10;;;;;;;9.57;2.80;;;;;;;;;;4942065;28;20075;-68
2022/05/09 00:46:38;;;;;;;8.18;2.28;;;;;;;;;;4947030;28;20426;-68
2022/05/09 00:49:08;;;;;;;10.90;2.50;;;;;;;;;;4946618;28;20047;-68
2022/05/09 00:51:37;;;;;;;10.80;2.35;;;;;;;;;;4928579;29;20118;-68
2022/05/09 00:54:04;;;;;;;11.45;3.33;;;;;;;;;;4945810;28;20047;-68
2022/05/09 00:56:36;;;;;;;7.43;2.47;;;;;;;;;;4938377;28;20051;-68
2022/05/09 00:59:06;;;;;;;13.48;2.88;;;;;;;;;;4930022;28;20126;-68
2022/05/09 01:01:33;;;;;;;12.65;2.85;;;;;;;;;;4940470;28;20422;-68
2022/05/09 01:04:04;;;;;;;13.30;2.88;;;;;;;;;;4925334;28;20580;-68
2022/05/09 01:06:32;;;;;;;11.75;3.42;;;;;;;;;;4943533;29;20051;-68
2022/05/09 01:08:59;;;;;;;10.68;2.55;;;;;;;;;;4944409;28;20039;-68
2022/05/09 01:11:28;;;;;;;15.13;3.67;;;;;;;;;;4943523;28;20054;-68
2022/05/09 01:13:59;;;;;;;8.30;3.17;;;;;;;;;;4946015;28;20082;-68
2022/05/09 01:16:27;;;;;;;6.80;2.67;;;;;;;;;;4943609;28;20122;-68
2022/05/09 01:18:54;;;;;;;8.77;2.40;;;;;;;;;;4941659;28;20055;-68
2022/05/09 01:21:33;;;;;;;9.85;2.50;;;;;;;;;;4944362;28;20054;-68
2022/05/09 01:24:01;;;;;;;7.95;2.33;;;;;;;;;;4939877;28;20518;-68
2022/05/09 01:26:28;;;;;;;11.50;2.30;;;;;;;;;;4943287;28;20047;-68
2022/05/09 01:28:57;;;;;;;3.72;1.48;;;;;;;;;;4924976;29;20437;-68
2022/05/09 01:31:26;;;;;;;7.82;1.48;;;;;;;;;;4941400;28;20039;-68
2022/05/09 01:33:55;;;;;;;2.63;0.88;;;;;;;;;;4927967;29;20515;-68
2022/05/09 01:36:25;;;;;;;3.70;1.05;;;;;;;;;;4944741;28;20054;-68
2022/05/09 01:38:57;;;;;;;3.13;1.38;;;;;;;;;;4946212;28;20062;-68
2022/05/09 01:41:24;;;;;;;4.70;1.70;;;;;;;;;;4946958;28;20483;-68
2022/05/09 01:43:55;;;;;;;8.52;1.90;;;;;;;;;;4943735;28;20051;-68
2022/05/09 01:46:23;;;;;;;7.80;1.90;;;;;;;;;;4943406;28;20062;-68
2022/05/09 01:51:35;;;;;;;6.88;1.80;;;;;;;;;;4945567;28;20138;-68
2022/05/09 01:54:04;;;;;;;4.60;1.70;;;;;;;;;;4940767;28;20117;-68
2022/05/09 01:56:32;;;;;;;4.78;1.70;;;;;;;;;;4925225;28;20122;-68
2022/05/09 01:59:00;;;;;;;7.82;2.30;;;;;;;;;;4940703;28;20043;-68
2022/05/09 02:01:28;;;;;;;7.68;2.30;;;;;;;;;;4944196;28;20109;-68
2022/05/09 02:03:56;;;;;;;7.82;2.38;;;;;;;;;;4941481;28;20055;-68
2022/05/09 02:06:23;;;;;;;9.25;2.10;;;;;;;;;;4926505;28;20157;-68
2022/05/09 02:08:51;;;;;;;16.42;2.80;;;;;;;;;;4945246;28;20047;-68
2022/05/09 02:11:19;;;;;;;14.50;2.58;;;;;;;;;;4952065;28;20060;-68
2022/05/09 02:13:47;;;;;;;11.43;2.97;;;;;;;;;;4944817;28;20054;-68
2022/05/09 02:16:14;;;;;;;6.32;2.05;;;;;;;;;;4943782;28;20051;-68
2022/05/09 02:18:41;;;;;;;12.35;2.25;;;;;;;;;;4941852;28;20094;-68
2022/05/09 02:21:08;;;;;;;7.57;2.55;;;;;;;;;;4927348;29;20525;-68
2022/05/09 02:23:36;;;;;;;7.32;2.17;;;;;;;;;;4943482;28;20062;-68
2022/05/09 02:26:03;;;;;;;11.18;2.60;;;;;;;;;;4946576;28;20055;-68
2022/05/09 02:28:32;;;;;;;10.32;2.33;;;;;;;;;;4938614;28;20423;-68
2022/05/09 02:30:59;;;;;;;9.77;2.17;;;;;;;;;;4926978;29;20063;-68
2022/05/09 02:33:26;;;;;;;11.57;2.50;;;;;;;;;;4945598;28;20472;-68
2022/05/09 02:35:54;;;;;;;8.40;2.42;;;;;;;;;;4947290;28;20483;-68
2022/05/09 02:38:23;;;;;;;8.15;1.85;;;;;;;;;;4949175;29;20439;-68
2022/05/09 02:40:50;;;;;;;6.13;2.05;;;;;;;;;;4948541;28;20059;-68
2022/05/09 02:43:17;;;;;;;6.22;1.88;;;;;;;;;;4946832;28;20197;-68
2022/05/09 02:45:46;;;;;;;5.93;1.90;;;;;;;;;;4948477;28;20055;-68
2022/05/09 02:48:13;;;;;;;8.25;2.30;;;;;;;;;;4948645;28;20051;-68
2022/05/09 02:50:40;;;;;;;10.27;2.20;;;;;;;;;;4931714;29;20108;-68
2022/05/09 02:53:10;;;;;;;7.22;2.33;;;;;;;;;;4949374;28;20511;-68
2022/05/09 02:55:37;;;;;;;5.38;1.90;;;;;;;;;;4950866;28;20090;-68
2022/05/09 02:58:05;;;;;;;8.88;2.08;;;;;;;;;;4946156;28;20043;-68
2022/05/09 03:00:32;;;;;;;12.32;3.25;;;;;;;;;;4946029;28;20044;-68
2022/05/09 03:05:48;;;;;;;6.78;1.90;;;;;;;;;;4926606;29;20062;-68
2022/05/09 03:08:17;;;;;;;8.85;1.92;;;;;;;;;;4940560;28;20518;-68
2022/05/09 03:10:44;;;;;;;7.50;2.10;;;;;;;;;;4950631;28;20055;-68
2022/05/09 03:13:12;;;;;;;3.42;1.58;;;;;;;;;;4946317;28;20196;-68
2022/05/09 03:15:40;;;;;;;9.02;1.23;;;;;;;;;;4929583;29;20069;-68
2022/05/09 03:18:10;;;;;;;2.58;1.10;;;;;;;;;;4948766;29;20055;-68
2022/05/09 03:20:38;;;;;;;3.00;1.23;;;;;;;;;;4944759;28;20059;-68
2022/05/09 03:23:06;;;;;;;5.05;1.40;;;;;;;;;;4948986;28;20142;-68
2022/05/09 03:25:34;;;;;;;7.30;1.58;;;;;;;;;;4943227;28;20119;-68
2022/05/09 03:28:01;;;;;;;11.88;1.80;;;;;;;;;;4942633;28;20051;-68
2022/05/09 03:30:29;;;;;;;4.75;1.27;;;;;;;;;;4942233;28;20055;-68
2022/05/09 03:32:56;;;;;;;5.15;1.30;;;;;;;;;;4941825;28;20142;-68
2022/05/09 03:35:24;;;;;;;8.48;1.58;;;;;;;;;;4923790;29;20114;-68
2022/05/09 03:37:52;;;;;;;4.50;1.38;;;;;;;;;;4924710;28;20422;-68
2022/05/09 03:40:20;;;;;;;5.15;1.23;;;;;;;;;;4944232;28;20091;-68
2022/05/09 03:42:48;;;;;;;3.35;1.27;;;;;;;;;;4941082;28;20082;-68
2022/05/09 03:45:15;;;;;;;6.95;1.52;;;;;;;;;;4943948;28;20058;-68
2022/05/09 03:47:43;;;;;;;1.95;1.00;;;;;;;;;;4942090;28;20607;-68
2022/05/09 03:50:12;;;;;;;3.90;1.17;;;;;;;;;;4945946;28;20111;-68
2022/05/09 03:52:40;;;;;;;1.50;0.80;;;;;;;;;;4946442;28;20130;-68
2022/05/09 03:55:08;;;;;;;2.20;1.15;;;;;;;;;;4946127;28;20051;-68
2022/05/09 03:57:35;;;;;;;7.20;1.73;;;;;;;;;;4943308;28;20099;-68
2022/05/09 04:00:04;;;;;;;6.97;1.90;;;;;;;;;;4945438;28;20279;-68
2022/05/09 04:02:31;;;;;;;13.32;2.45;;;;;;;;;;4946598;28;20062;-68
2022/05/09 04:04:58;;;;;;;5.18;2.20;;;;;;;;;;4946630;28;20115;-68
2022/05/09 04:07:25;;;;;;;15.38;2.70;;;;;;;;;;4945315;28;20051;-68
2022/05/09 04:09:54;;;;;;;4.30;2.17;;;;;;;;;;4928681;28;20042;-68
2022/05/09 04:12:21;;;;;;;6.57;2.35;;;;;;;;;;4943490;28;20399;-68
2022/05/09 04:17:33;;;;;;;7.22;2.28;;;;;;;;;;4942439;28;20130;-68
2022/05/09 04:20:00;;;;;;;6.88;2.30;;;;;;;;;;4924967;29;20459;-68
2022/05/09 04:22:28;;;;;;;8.02;2.28;;;;;;;;;;4923207;29;20862;-68
2022/05/09 04:24:57;;;;;;;5.90;2.10;;;;;;;;;;4946120;28;20062;-68
2022/05/09 04:27:24;;;;;;;6.32;2.33;;;;;;;;;;4925236;29;20482;-68
2022/05/09 04:29:51;;;;;;;9.88;2.20;;;;;;;;;;4944072;28;20055;-68
2022/05/09 04:32:18;;;;;;;9.02;2.25;;;;;;;;;;4943045;28;20102;-68
2022/05/09 04:34:46;;;;;;;9.52;2.88;;;;;;;;;;4943594;28;20054;-68
2022/05/09 04:37:13;;;;;;;7.95;2.90;;;;;;;;;;4942155;28;20570;-68
2022/05/09 04:39:41;;;;;;;10.13;2.83;;;;;;;;;;4925778;28;20055;-68
2022/05/09 04:42:11;;;;;;;12.95;2.88;;;;;;;;;;4940489;29;20716;-68
2022/05/09 04:44:38;;;;;;;12.98;3.60;;;;;;;;;;4928901;28;20213;-68
2022/05/09 04:47:07;;;;;;;13.02;3.13;;;;;;;;;;4944685;28;20047;-68
2022/05/09 04:49:34;;;;;;;14.75;3.97;;;;;;;;;;4946779;28;20051;-68
2022/05/09 04:52:02;;;;;;;14.68;3.40;;;;;;;;;;4943587;28;20126;-68
2022/05/09 04:54:29;;;;;;;17.00;3.78;;;;;;;;;;4944312;28;20059;-69
2022/05/09 04:56:56;;;;;;;14.82;3.92;;;;;;;;;;4946062;28;20131;-68
2022/05/09 04:59:25;;;;;;;19.13;3.70;;;;;;;;;;4929084;29;20122;-68
2022/05/09 05:01:52;;;;;;;13.18;3.47;;;;;;;;;;4940906;28;20169;-68
2022/05/09 05:04:19;;;;;;;16.85;3.95;;;;;;;;;;4947766;28;20113;-68
2022/05/09 05:06:46;;;;;;;14.50;4.00;;;;;;;;;;4949342;28;20862;-68
2022/05/09 05:09:14;;;;;;;22.50;3.95;;;;;;;;;;4943361;28;20149;-68
2022/05/09 05:11:41;;;;;;;17.60;4.35;;;;;;;;;;4944808;28;20059;-68
2022/05/09 05:14:08;;;;;;;18.92;4.22;;;;;;;;;;4938874;28;20055;-68
2022/05/09 05:19:21;;;;;;;16.67;4.40;;;;;;;;;;4938587;28;20063;-68
2022/05/09 05:21:49;;;;;;;18.85;4.97;;;;;;;;;;4924503;29;20110;-68
2022/05/09 05:24:16;;;;;;;28.80;4.95;;;;;;;;;;4930377;28;20059;-68
2022/05/09 05:26:43;;;;;;;16.05;4.90;;;;;;;;;;4941712;28;20058;-68
2022/05/09 05:29:10;;;;;;;18.98;4.80;;;;;;;;;;4929388;29;20067;-68
2022/05/09 05:31:39;;;;;;;23.95;4.97;;;;;;;;;;4943143;28;20607;-68
2022/05/09 05:34:06;;;;;;;17.15;4.80;;;;;;;;;;4939528;28;20090;-68
2022/05/09 05:36:33;;;;;;;20.90;5.15;;;;;;;;;;4939717;28;20122;-68
2022/05/09 05:39:00;;;;;;;17.65;5.32;;;;;;;;;;4928650;29;20059;-68
2022/05/09 05:41:27;;;;;;;15.43;4.78;;;;;;;;;;4924480;29;20088;-68
2022/05/09 05:43:55;;;;;;;17.42;5.15;;;;;;;;;;4941006;28;20158;-68
2022/05/09 05:46:22;;;;;;;20.00;5.35;;;;;;;;;;4941199;28;20059;-68
2022/05/09 05:48:51;;;;;;;14.90;4.85;;;;;;;;;;4944596;28;20063;-68
2022/05/09 05:51:18;;;;;;;23.85;5.78;;;;;;;;;;4942913;28;20822;-68
2022/05/09 05:53:46;;;;;;;21.90;5.97;;;;;;;;;;4944269;28;20051;-68
2022/05/09 05:56:13;;;;;;;16.42;5.60;;;;;;;;;;4927086;29;20123;-68
2022/05/09 05:58:40;;;;;;;20.90;6.13;;;;;;;;;;4943413;28;20048;-68
2022/05/09 06:01:08;;;;;;;24.17;5.72;;;;;;;;;;4943873;28;20122;-68
2022/05/09 06:03:36;;;;;;;17.85;5.80;;;;;;;;;;4936458;28;20130;-68
2022/05/09 06:06:04;;;;;;;21.77;5.75;;;;;;;;;;4927454;28;20058;-68
2022/05/09 06:08:31;;;;;;;25.95;7.00;;;;;;;;;;4923928;29;20130;-68
2022/05/09 06:10:59;;;;;;;22.23;5.75;;;;;;;;;;4942735;28;20097;-68
2022/05/09 06:13:26;;;;;;;23.08;5.90;;;;;;;;;;4940472;28;20051;-68
2022/05/09 06:15:53;;;;;;;20.13;6.20;;;;;;;;;;4924922;29;20047;-68
2022/05/09 06:18:21;;;;;;;22.13;6.15;;;;;;;;;;4942944;29;21011;-68
2022/05/09 06:20:48;;;;;;;20.90;6.20;;;;;;;;;;4941159;28;20066;-68
2022/05/09 06:23:17;;;;;;;23.27;6.65;;;;;;;;;;4941893;28;20402;-68
2022/05/09 06:25:46;;;;;;;20.58;6.00;;;;;;;;;;4942090;28;20158;-68
2022/05/09 06:28:15;;;;;;;26.90;5.90;;;;;;;;;;4925014;29;20066;-68
2022/05/09 06:30:42;;;;;;;20.58;5.60;;;;;;;;;;4942748;28;20134;-68
2022/05/09 06:33:10;;;;;;;24.45;5.78;;;;;;;;;;4925204;29;20118;-68
2022/05/09 06:35:40;;;;;;;21.33;5.30;;;;;;;;;;4947320;28;20055;-68
2022/05/09 06:38:07;;;;;;;19.20;5.65;;;;;;;;;;4942630;28;20620;-68
2022/05/09 06:40:36;;;;;;;20.40;5.63;;;;;;;;;;4943132;28;20511;-68
2022/05/09 06:43:05;;;;;;;17.60;5.55;;;;;;;;;;4922804;29;20085;-68
2022/05/09 06:45:33;;;;;;;17.25;5.10;;;;;;;;;;4944462;28;20061;-68
2022/05/09 06:48:00;;;;;;;17.80;5.13;;;;;;;;;;4937450;28;20674;-68
2022/05/09 06:50:28;;;;;;;23.42;6.07;;;;;;;;;;4943556;28;20153;-68
2022/05/09 06:52:56;;;;;;;19.67;5.47;;;;;;;;;;4942127;28;20059;-68
2022/05/09 06:55:23;;;;;;;19.65;5.60;;;;;;;;;;4941258;28;20059;-68
2022/05/09 06:57:52;;;;;;;19.88;6.20;;;;;;;;;;4924902;29;21912;-68
2022/05/09 07:00:20;;;;;;;16.60;4.95;;;;;;;;;;4936371;28;20055;-68
2022/05/09 07:02:48;;;;;;;21.48;5.40;;;;;;;;;;4934423;29;20050;-68
2022/05/09 07:05:16;;;;;;;24.17;5.70;;;;;;;;;;4937952;28;20055;-68
2022/05/09 07:07:44;;;;;;;21.35;5.38;;;;;;;;;;4932694;28;20052;-68
2022/05/09 07:10:11;;;;;;;22.55;4.38;;;;;;;;;;4937034;28;20486;-68
2022/05/09 07:12:43;;;;;;;25.13;6.13;;;;;;;;;;4941029;28;20059;-68
2022/05/09 07:15:12;;;;;;;18.23;5.25;;;;;;;;;;4922960;29;20056;-68
2022/05/09 07:17:39;;;;;;;17.55;5.00;;;;;;;;;;4945753;28;20510;-68
2022/05/09 07:20:07;;;;;;;19.90;5.20;;;;;;;;;;4945605;28;20043;-68
2022/05/09 07:22:35;;;;;;;19.52;5.22;;;;;;;;;;4940451;28;20510;-68
2022/05/09 07:25:03;;;;;;;16.90;4.88;;;;;;;;;;4927015;29;20055;-68
2022/05/09 07:27:30;;;;;;;17.55;4.93;;;;;;;;;;4927271;29;20459;-68
2022/05/09 07:29:57;;;;;;;16.80;4.40;;;;;;;;;;4941084;28;20107;-68
2022/05/09 07:32:26;;;;;;;24.35;5.53;;;;;;;;;;4940494;28;20087;-68
2022/05/09 07:34:53;;;;;;;18.52;4.57;;;;;;;;;;4942712;28;21171;-68
2022/05/09 07:37:21;;;;;;;16.55;4.85;;;;;;;;;;4942066;28;20458;-68
2022/05/09 07:39:48;;;;;;;17.40;4.88;;;;;;;;;;4941137;28;20055;-68
2022/05/09 07:42:16;;;;;;;17.45;4.43;;;;;;;;;;4940703;28;20111;-68
2022/05/09 07:44:43;;;;;;;17.80;4.68;;;;;;;;;;4946994;28;20134;-68
2022/05/09 07:47:11;;;;;;;18.77;4.80;;;;;;;;;;4928859;29;20511;-68
2022/05/09 07:49:39;;;;;;;20.08;4.93;;;;;;;;;;4950014;28;20562;-68
2022/05/09 07:52:08;;;;;;;18.85;5.00;;;;;;;;;;4947404;28;20128;-68
2022/05/09 07:54:35;;;;;;;21.92;4.78;;;;;;;;;;4946796;28;20145;-68
2022/05/09 07:57:03;;;;;;;14.50;4.80;;;;;;;;;;4930107;29;20062;-68
2022/05/09 07:59:30;;;;;;;19.10;4.85;;;;;;;;;;4933195;28;20073;-68
2022/05/09 08:01:57;;;;;;;16.73;4.60;;;;;;;;;;4929938;29;20055;-68
2022/05/09 08:04:25;;;;;;;17.40;4.90;;;;;;;;;;4952994;28;20622;-68
2022/05/09 08:06:54;;;;;;;15.73;4.15;;;;;;;;;;4948023;28;20718;-68
2022/05/09 08:09:21;;;;;;;19.55;4.82;;;;;;;;;;4950154;28;20150;-68
2022/05/09 08:11:48;;;;;;;17.48;4.25;;;;;;;;;;4948799;28;20503;-68
2022/05/09 08:14:15;;;;;;;14.82;3.88;;;;;;;;;;4931819;29;20051;-68
2022/05/09 08:16:43;;;;;;;17.00;3.85;;;;;;;;;;4947092;28;20059;-68
2022/05/09 08:19:11;;;;;;;20.60;4.95;;;;;;;;;;4948816;28;20058;-68
2022/05/09 08:21:38;;;;;;;16.40;4.05;;;;;;;;;;4950897;28;20059;-68
2022/05/09 08:24:08;;;;;;;17.75;4.15;;;;;;;;;;4949361;28;20110;-68
2022/05/09 08:26:35;;;;;;;18.30;3.83;;;;;;;;;;4930353;28;20138;-68
2022/05/09 08:29:03;;;;;;;13.85;4.18;;;;;;;;;;4935149;29;20059;-68
2022/05/09 08:31:30;;;;;;;14.98;3.80;;;;;;;;;;4931913;29;20062;-68
2022/05/09 08:33:57;;;;;;;18.48;4.43;;;;;;;;;;4943874;28;20471;-68
2022/05/09 08:39:11;;;;;;;15.20;3.72;;;;;;;;;;4946486;28;20062;-68
2022/05/09 08:41:47;;;;;;;18.05;4.32;;;;;;;;;;4949615;28;20059;-68
2022/05/09 08:44:20;;;;;;;13.20;3.25;;;;;;;;;;4949402;28;20099;-68
2022/05/09 08:46:52;;;;;;;15.90;4.13;;;;;;;;;;4949343;28;20050;-68
2022/05/09 08:49:31;;;;;;;17.10;4.00;;;;;;;;;;4951004;28;20481;-68
2022/05/09 08:52:14;;;;;;;16.50;3.70;;;;;;;;;;4947775;28;20047;-68
2022/05/09 08:54:44;;;;;;;15.70;3.95;;;;;;;;;;4948943;28;20055;-68
2022/05/09 08:57:14;;;;;;;11.77;3.30;;;;;;;;;;4947976;28;20047;-68
2022/05/09 08:59:46;;;;;;;8.65;2.92;;;;;;;;;;4950205;28;20051;-68
2022/05/09 09:02:15;;;;;;;12.13;3.30;;;;;;;;;;4946943;28;20051;-68
2022/05/09 09:04:51;;;;;;;12.90;2.90;;;;;;;;;;4951609;28;20391;-68
2022/05/09 09:07:31;;;;;;;13.25;2.97;;;;;;;;;;4930819;28;20064;-68
2022/05/09 09:10:03;;;;;;;15.95;3.75;;;;;;;;;;4948744;28;20138;-68
2022/05/09 09:12:38;;;;;;;13.38;2.55;;;;;;;;;;4944720;28;20122;-68
2022/05/09 09:15:09;;;;;;;12.13;2.70;;;;;;;;;;4945006;28;20141;-68
2022/05/09 09:17:46;;;;;;;10.13;2.63;;;;;;;;;;4942498;28;20051;-69
2022/05/09 09:20:15;;;;;;;11.50;2.80;;;;;;;;;;4923073;29;20502;-69
2022/05/09 09:22:54;;;;;;;12.02;2.92;;;;;;;;;;4941995;28;20051;-69
2022/05/09 09:25:32;;;;;;;15.50;2.75;;;;;;;;;;4944486;28;20118;-69
2022/05/09 09:28:02;;;;;;;10.10;2.35;;;;;;;;;;4940010;28;20926;-69
2022/05/09 09:30:30;;;;;;;14.10;2.50;;;;;;;;;;4946022;28;20054;-69
2022/05/09 09:32:59;;;;;;;12.20;2.88;;;;;;;;;;4945010;28;20079;-69
2022/05/09 09:35:34;;;;;;;9.23;2.33;;;;;;;;;;4923511;29;20407;-69
2022/05/09 09:38:05;;;;;;;10.95;2.53;;;;;;;;;;4939704;28;20051;-69
2022/05/09 09:40:34;;;;;;;15.40;3.00;;;;;;;;;;4942515;28;20086;-69
2022/05/09 09:43:01;;;;;;;13.05;2.53;;;;;;;;;;4939489;29;20054;-69
2022/05/09 09:45:30;;;;;;;11.32;2.60;;;;;;;;;;4925308;29;20095;-69
2022/05/09 09:48:11;;;;;;;14.77;2.80;;;;;;;;;;4942728;28;20564;-69
2022/05/09 09:50:39;;;;;;;12.73;2.35;;;;;;;;;;4944294;28;20051;-69
2022/05/09 09:53:07;;;;;;;12.50;2.55;;;;;;;;;;4923124;29;20145;-69
2022/05/09 09:55:37;;;;;;;14.95;2.70;;;;;;;;;;4941167;28;20510;-69
2022/05/09 09:58:20;;;;;;;15.85;3.15;;;;;;;;;;4940258;28;20059;-69
2022/05/09 10:00:47;;;;;;;15.73;2.85;;;;;;;;;;4942126;28;20150;-69
2022/05/09 10:03:19;;;;;;;12.90;2.70;;;;;;;;;;4929526;29;20502;-69
2022/05/09 10:05:47;;;;;;;11.82;2.90;;;;;;;;;;4949545;28;20077;-69
2022/05/09 10:08:21;;;;;;;12.98;2.88;;;;;;;;;;4949621;28;20147;-69
2022/05/09 10:10:57;;;;;;;11.65;2.60;;;;;;;;;;4932619;29;20051;-69
2022/05/09 10:13:24;;;;;;;14.90;2.63;;;;;;;;;;4945341;28;20054;-69
2022/05/09 10:16:02;;;;;;;13.95;2.70;;;;;;;;;;4932753;28;20066;-69
2022/05/09 10:18:33;;;;;;;10.60;2.47;;;;;;;;;;4949459;28;20540;-69
2022/05/09 10:21:02;;;;;;;13.15;2.67;;;;;;;;;;4930224;29;20184;-69
2022/05/09 10:26:29;;;;;;;9.80;2.60;;;;;;;;;;4905398;29;20055;-69
2022/05/09 10:28:57;;;;;;;9.95;2.70;;;;;;;;;;4933975;28;20379;-69
2022/05/09 10:31:26;;;;;;;12.98;2.72;;;;;;;;;;4922303;29;20134;-69
2022/05/09 10:33:57;;;;;;;10.35;2.55;;;;;;;;;;4943062;28;20058;-69
2022/05/09 10:36:26;;;;;;;12.43;2.70;;;;;;;;;;4947196;28;20051;-69
2022/05/09 10:38:58;;;;;;;10.77;2.67;;;;;;;;;;4943672;28;20065;-69
2022/05/09 10:41:31;;;;;;;10.23;2.63;;;;;;;;;;4942165;28;20059;-69
2022/05/09 10:44:00;;;;;;;10.38;2.97;;;;;;;;;;4923972;28;20638;-69
2022/05/09 10:46:35;;;;;;;10.35;2.63;;;;;;;;;;4941315;28;20069;-69
2022/05/09 10:49:05;;;;;;;10.30;2.90;;;;;;;;;;4931343;29;20403;-69
2022/05/09 10:51:36;;;;;;;11.00;2.50;;;;;;;;;;4951110;28;20043;-69
2022/05/09 10:54:08;;;;;;;10.43;2.45;;;;;;;;;;4930128;29;20055;-69
2022/05/09 10:56:39;;;;;;;14.13;2.43;;;;;;;;;;4952557;28;20058;-69
2022/05/09 10:59:09;;;;;;;9.52;2.83;;;;;;;;;;4950130;28;20430;-69
2022/05/09 11:01:40;;;;;;;10.85;2.60;;;;;;;;;;4945986;28;20047;-69
2022/05/09 11:04:07;;;;;;;10.70;2.65;;;;;;;;;;4947106;28;20446;-69
2022/05/09 11:06:43;;;;;;;8.68;2.63;;;;;;;;;;4947715;28;20050;-69
2022/05/09 11:09:32;;;;;;;10.32;2.33;;;;;;;;;;4928324;29;20523;-69
2022/05/09 11:12:07;;;;;;;11.73;3.00;;;;;;;;;;4947229;28;20062;-69
2022/05/09 11:14:39;;;;;;;8.30;2.53;;;;;;;;;;4948160;28;20055;-69
2022/05/09 11:17:13;;;;;;;12.25;2.75;;;;;;;;;;4950382;29;20047;-69
2022/05/09 11:19:45;;;;;;;11.38;2.90;;;;;;;;;;4949537;28;20039;-69
2022/05/09 11:22:18;;;;;;;12.75;3.03;;;;;;;;;;4946597;28;20050;-69
2022/05/09 11:24:45;;;;;;;;;;;;;;;;;;4952513;28;20051;-69
2022/05/09 11:27:22;;;;;;;13.63;2.55;;;;;;;;;;4946686;28;20436;-69
2022/05/09 11:29:56;;;;;;;10.70;3.35;;;;;;;;;;4950254;28;20043;-70
2022/05/09 11:32:35;;;;;;;10.93;2.50;;;;;;;;;;4950156;28;20102;-70
2022/05/09 11:35:21;;;;;;;14.50;2.80;;;;;;;;;;4926659;28;20050;-70
2022/05/09 11:37:55;;;;;;;10.25;2.83;;;;;;;;;;4947184;28;20131;-71
2022/05/09 11:40:27;;;;;;;11.15;2.88;;;;;;;;;;4941505;28;20102;-71
2022/05/09 11:46:06;;;;;;;7.38;2.42;;;;;;;;;;4900880;29;20047;-71
2022/05/09 11:48:41;;;;;;;8.20;2.67;;;;;;;;;;4905290;29;20067;-71
2022/05/09 11:51:14;;;;;;;9.80;2.88;;;;;;;;;;4918332;29;20055;-71
2022/05/09 11:53:43;;;;;;;10.07;3.35;;;;;;;;;;4947580;28;20109;-71
2022/05/09 11:56:11;;;;;;;10.02;2.78;;;;;;;;;;4941995;28;20055;-71
2022/05/09 11:58:41;;;;;;;12.38;3.13;;;;;;;;;;4950371;28;20411;-71
2022/05/09 12:01:09;;;;;;;9.52;3.10;;;;;;;;;;4942905;28;20121;-71
2022/05/09 12:03:54;;;;;;;14.00;3.38;;;;;;;;;;4948143;28;20106;-71
2022/05/09 12:06:32;;;;;;;11.38;3.08;;;;;;;;;;4944100;28;20396;-71
2022/05/09 12:09:01;;;;;;;9.20;2.80;;;;;;;;;;4946322;28;20115;-71
2022/05/09 12:11:44;;;;;;;10.02;2.95;;;;;;;;;;4947993;28;20047;-71
2022/05/09 12:14:11;;;;;;;;;;;;;;;;;;4945135;28;20122;-71
2022/05/09 12:16:45;;;;;;;11.57;3.35;;;;;;;;;;4944985;28;20730;-71
2022/05/09 12:19:14;;;;;;;10.48;3.17;;;;;;;;;;4945824;28;20051;-71
2022/05/09 12:21:42;;;;;;;13.32;3.35;;;;;;;;;;4950482;28;20062;-71
2022/05/09 12:24:27;;;;;;;10.52;3.30;;;;;;;;;;4951718;28;20054;-71
2022/05/09 12:26:55;;;;;;;10.27;3.25;;;;;;;;;;4947217;28;20048;-71
2022/05/09 12:29:32;;;;;;;8.77;3.38;;;;;;;;;;4947901;28;20054;-71
2022/05/09 12:32:02;;;;;;;15.13;3.50;;;;;;;;;;4947427;28;20694;-71
2022/05/09 12:34:34;;;;;;;11.93;3.17;;;;;;;;;;4930870;29;20059;-71
2022/05/09 12:37:02;;;;;;;16.58;3.40;;;;;;;;;;4947897;28;20066;-71
2022/05/09 12:39:32;;;;;;;12.88;3.83;;;;;;;;;;4947929;28;20098;-71
2022/05/09 12:42:00;;;;;;;12.25;3.47;;;;;;;;;;4941540;28;20055;-69
2022/05/09 12:44:29;;;;;;;12.95;3.47;;;;;;;;;;4950326;28;20051;-69
2022/05/09 12:46:57;;;;;;;10.27;2.92;;;;;;;;;;4948361;28;20051;-69
2022/05/09 12:49:28;;;;;;;12.85;3.30;;;;;;;;;;4949334;28;20730;-69
2022/05/09 12:51:57;;;;;;;12.80;3.30;;;;;;;;;;4947973;28;20063;-69
2022/05/09 12:54:26;;;;;;;10.25;3.15;;;;;;;;;;4946635;28;20772;-69
2022/05/09 12:56:55;;;;;;;9.25;3.25;;;;;;;;;;4944911;28;20051;-68
2022/05/09 12:59:22;;;;;;;9.35;3.20;;;;;;;;;;4931072;29;20051;-69
2022/05/09 13:01:52;;;;;;;10.45;3.55;;;;;;;;;;4929331;28;20584;-69
2022/05/09 13:04:21;;;;;;;11.65;3.30;;;;;;;;;;4926385;29;20138;-69
2022/05/09 13:06:53;;;;;;;11.98;3.40;;;;;;;;;;4926660;29;20074;-69
2022/05/09 13:09:21;;;;;;;9.15;3.10;;;;;;;;;;4941293;28;20062;-69
2022/05/09 13:11:49;;;;;;;12.00;3.60;;;;;;;;;;4938983;28;20062;-69
2022/05/09 13:14:19;;;;;;;11.65;3.53;;;;;;;;;;4939235;28;20043;-70
2022/05/09 13:16:53;;;;;;;11.80;3.20;;;;;;;;;;4939091;28;20134;-70
2022/05/09 13:19:21;;;;;;;8.65;3.50;;;;;;;;;;4939708;29;20741;-70
2022/05/09 13:21:51;;;;;;;10.18;3.22;;;;;;;;;;4927082;29;20474;-70
2022/05/09 13:24:19;;;;;;;9.13;3.35;;;;;;;;;;4943792;29;20103;-70
2022/05/09 13:26:48;;;;;;;9.07;3.25;;;;;;;;;;4926070;29;20458;-70
2022/05/09 13:29:23;;;;;;;12.48;3.20;;;;;;;;;;4927714;28;20054;-70
2022/05/09 13:31:51;;;;;;;8.88;3.30;;;;;;;;;;4928179;28;20495;-70
2022/05/09 13:34:21;;;;;;;12.23;3.15;;;;;;;;;;4932482;28;20072;-70
2022/05/09 13:36:49;;;;;;;9.35;3.28;;;;;;;;;;4948826;28;20051;-70
2022/05/09 13:39:25;;;;;;;9.80;3.22;;;;;;;;;;4931317;29;20402;-70
2022/05/09 13:41:53;;;;;;;10.55;3.20;;;;;;;;;;4946324;28;20073;-70
2022/05/09 13:44:21;;;;;;;8.27;3.10;;;;;;;;;;4943660;28;20055;-70
2022/05/09 13:46:49;;;;;;;7.93;3.17;;;;;;;;;;4928613;29;20063;-70
2022/05/09 13:49:18;;;;;;;10.40;2.88;;;;;;;;;;4945334;28;20057;-70
2022/05/09 13:51:52;;;;;;;9.70;2.90;;;;;;;;;;4948045;29;20067;-70
2022/05/09 13:54:21;;;;;;;8.95;3.05;;;;;;;;;;4946562;28;20118;-70
2022/05/09 13:56:50;;;;;;;8.88;3.13;;;;;;;;;;4942459;28;20099;-70
2022/05/09 13:59:18;;;;;;;9.00;3.45;;;;;;;;;;4927201;29;20055;-70
2022/05/09 14:01:47;;;;;;;8.77;3.08;;;;;;;;;;4945396;28;20059;-70
2022/05/09 14:04:17;;;;;;;9.88;3.17;;;;;;;;;;4946074;28;21892;-70
2022/05/09 14:06:45;;;;;;;8.75;2.88;;;;;;;;;;4943754;28;20051;-70
2022/05/09 14:09:15;;;;;;;8.85;2.88;;;;;;;;;;4942963;28;20055;-70
2022/05/09 14:11:54;;;;;;;8.50;2.90;;;;;;;;;;4926211;29;20129;-70
2022/05/09 14:14:34;;;;;;;10.02;3.00;;;;;;;;;;4944422;28;20518;-69
2022/05/09 14:17:03;;;;;;;13.82;3.42;;;;;;;;;;4945493;28;20057;-69
2022/05/09 14:19:31;;;;;;;7.75;3.15;;;;;;;;;;4927109;29;20066;-69
2022/05/09 14:22:04;;;;;;;8.27;2.75;;;;;;;;;;4924723;29;20058;-69
2022/05/09 14:24:32;;;;;;;7.97;2.70;;;;;;;;;;4928433;28;20066;-69
2022/05/09 14:29:52;;;;;;;11.07;3.83;;;;;;;;;;4950396;29;20085;-69
2022/05/09 14:32:34;;;;;;;11.98;3.67;;;;;;;;;;4948948;28;20050;-69
2022/05/09 14:35:01;;;;;;;13.30;4.30;;;;;;;;;;4948115;28;20510;-69
2022/05/09 14:37:33;;;;;;;12.07;4.20;;;;;;;;;;4931538;29;20066;-69
2022/05/09 14:40:16;;;;;;;11.77;4.15;;;;;;;;;;4931262;29;20070;-69
2022/05/09 14:42:50;;;;;;;14.70;3.50;;;;;;;;;;4946525;28;20059;-69
2022/05/09 14:45:20;;;;;;;10.15;3.58;;;;;;;;;;4949232;28;20058;-69
2022/05/09 14:47:49;;;;;;;11.57;4.05;;;;;;;;;;4944207;28;20055;-69
2022/05/09 14:50:18;;;;;;;10.18;3.38;;;;;;;;;;4934511;28;20059;-69
2022/05/09 14:52:48;;;;;;;13.93;3.92;;;;;;;;;;4949962;28;20110;-69
2022/05/09 14:58:02;;;;;;;10.60;4.07;;;;;;;;;;4933094;29;20116;-69
2022/05/09 15:00:33;;;;;;;14.27;4.18;;;;;;;;;;4947006;28;20055;-69
2022/05/09 15:03:01;;;;;;;11.32;4.40;;;;;;;;;;4947981;28;20051;-69
2022/05/09 15:05:28;;;;;;;18.73;4.40;;;;;;;;;;4945558;28;20054;-69
2022/05/09 15:07:56;;;;;;;10.00;4.03;;;;;;;;;;4947465;28;20712;-69
2022/05/09 15:10:23;;;;;;;13.65;4.00;;;;;;;;;;4929258;29;20059;-69
2022/05/09 15:12:51;;;;;;;10.13;3.55;;;;;;;;;;4947267;28;20154;-69
2022/05/09 15:15:18;;;;;;;11.65;4.18;;;;;;;;;;4945905;28;20055;-70